Flag Island, MN

2:35 AM CDT on May 25, 2018 (GMT -0500)
Flag Island

Weather History for KFGN - April, 2013

Change the Weather History Date:

Saturday, April 27, 2013

  Actual Average Record
Temperature  
Mean Temperature 46 °F -  
Max Temperature 60 °F 47 °F 64 °F (2006)
Min Temperature 33 °F 31 °F 21 °F (2008)
Degree Days  
Heating Degree Days 18    
Moisture  
Dew Point 35 °F    
Average Humidity 73    
Maximum Humidity 93    
Minimum Humidity 42    
Precipitation  
Precipitation 0.00 in - - ()
Sea Level Pressure  
Sea Level Pressure 29.80 in    
Wind  
Wind Speed 12 mph (South)    
Max Wind Speed 24 mph    
Max Gust Speed 37 mph    
Visibility 10 miles    
Events      
Averages and records for this station are not official NWS values.
T = Trace of Precipitation, MM = Missing Value Source: NWS Daily Summary

Daily Weather History Graph

Daily Weather History Graph

Search for Another Location

Airport or City:

Astronomy

Apr. 27, 2013 Rise Set
Actual Time 6:04 AM CDT 8:30 PM CDT
Civil Twilight 5:29 AM CDT 9:06 PM CDT
Nautical Twilight 4:44 AM CDT 9:51 PM CDT
Astronomical Twilight 3:53 AM CDT 10:43 PM CDT
Moon 11:11 PM CDT (4/27) 7:15 AM CDT (4/27)
Length of Visible Light 15h 37m
Length of Day
14h 26m
Waning Gibbous, 95% of the Moon is Illuminated
Apr 27
Waning Gibbous
May 2
Last Quarter
May 9
New
May 17
First Quarter
May 24
Full

Hourly Weather History & Observations

Time (CDT) Temp. Windchill Dew Point Humidity Pressure Visibility Wind Dir Wind Speed Gust Speed Precip Events Conditions
12:14 AM 37.4 °F 32.1 °F 33.8 °F 87% 30.00 in 10.0 mi SE 6.9 mph - N/A   Clear
12:33 AM 37.4 °F 32.1 °F 33.8 °F 87% 30.00 in 10.0 mi SSE 6.9 mph - N/A   Clear
12:53 AM 37.4 °F 30.8 °F 33.8 °F 87% 30.00 in 10.0 mi SSE 9.2 mph - N/A   Clear
1:14 AM 37.4 °F 31.4 °F 33.8 °F 87% 29.99 in 10.0 mi SE 8.1 mph - N/A   Clear
1:33 AM 37.4 °F 30.8 °F 33.8 °F 87% 29.99 in 10.0 mi SE 9.2 mph - N/A   Clear
1:53 AM 37.4 °F 31.4 °F 33.8 °F 87% 29.99 in 10.0 mi SSE 8.1 mph - N/A   Clear
2:14 AM 37.4 °F 30.8 °F 33.8 °F 87% 29.98 in 10.0 mi SSE 9.2 mph - N/A   Clear
2:33 AM 37.4 °F 30.3 °F 33.8 °F 87% 29.98 in 10.0 mi SSE 10.4 mph - N/A   Clear
2:53 AM 35.6 °F 28.6 °F 33.8 °F 93% 29.97 in 10.0 mi SSE 9.2 mph - N/A   Clear
3:14 AM 35.6 °F 29.2 °F 32.0 °F 87% 29.96 in 10.0 mi SSE 8.1 mph - N/A   Clear
3:33 AM 35.6 °F 28.6 °F 33.8 °F 93% 29.95 in 10.0 mi SSE 9.2 mph - N/A   Clear
3:53 AM 35.6 °F 28.0 °F 33.8 °F 93% 29.95 in 10.0 mi SSE 10.4 mph - N/A   Clear
4:13 AM 35.6 °F 28.6 °F 33.8 °F 93% 29.95 in 10.0 mi SSE 9.2 mph - N/A   Clear
4:34 AM 35.6 °F 28.6 °F 33.8 °F 93% 29.94 in 10.0 mi SSE 9.2 mph - N/A   Clear
4:53 AM 37.4 °F 30.3 °F 33.8 °F 87% 29.93 in 10.0 mi SE 10.4 mph - N/A   Clear
5:13 AM 37.4 °F 30.3 °F 33.8 °F 87% 29.93 in 10.0 mi SE 10.4 mph - N/A   Clear
5:34 AM 37.4 °F 29.8 °F 33.8 °F 87% 29.92 in 10.0 mi SSE 11.5 mph - N/A   Clear
5:53 AM 37.4 °F 29.8 °F 33.8 °F 87% 29.92 in 10.0 mi SSE 11.5 mph - N/A   Clear
6:13 AM 33.8 °F 26.4 °F 30.2 °F 87% 29.91 in 10.0 mi SSE 9.2 mph - N/A   Clear
6:33 AM 33.8 °F 26.4 °F 30.2 °F 87% 29.91 in 10.0 mi SSE 9.2 mph - N/A   Clear
6:54 AM 35.6 °F 29.2 °F 32.0 °F 87% 29.90 in 10.0 mi SSE 8.1 mph - N/A   Scattered Clouds
7:13 AM 35.6 °F 29.2 °F 32.0 °F 87% 29.90 in 10.0 mi SSE 8.1 mph - N/A   Scattered Clouds
7:33 AM 35.6 °F 28.0 °F 32.0 °F 87% 29.89 in 10.0 mi SE 10.4 mph - N/A   Clear
7:54 AM 37.4 °F 29.8 °F 32.0 °F 81% 29.89 in 10.0 mi SSE 11.5 mph - N/A   Clear
8:13 AM 37.4 °F 29.8 °F 32.0 °F 81% 29.88 in 10.0 mi SSE 11.5 mph - N/A   Scattered Clouds
8:33 AM 37.4 °F 29.3 °F 32.0 °F 81% 29.88 in 10.0 mi SSE 12.7 mph - N/A   Scattered Clouds
8:54 AM 35.6 °F 27.1 °F 32.0 °F 87% 29.87 in 10.0 mi SSE 12.7 mph - N/A   Scattered Clouds
9:13 AM 37.4 °F 28.9 °F 32.0 °F 81% 29.86 in 10.0 mi SSE 13.8 mph - N/A   Scattered Clouds
9:34 AM 37.4 °F 28.5 °F 32.0 °F 81% 29.86 in 10.0 mi SSE 15.0 mph - N/A   Scattered Clouds
9:53 AM 37.4 °F 26.9 °F 32.0 °F 81% 29.83 in 10.0 mi SSE 20.7 mph - N/A   Clear
10:13 AM 39.2 °F 31.2 °F 32.0 °F 75% 29.83 in 10.0 mi SSE 13.8 mph - N/A   Clear
10:33 AM 39.2 °F 30.5 °F 32.0 °F 75% 29.82 in 10.0 mi South 16.1 mph - N/A   Clear
10:54 AM 41.0 °F 33.5 °F 32.0 °F 70% 29.81 in 10.0 mi SSE 13.8 mph - N/A   Clear
11:13 AM 42.8 °F 35.8 °F 32.0 °F 66% 29.81 in 10.0 mi South 13.8 mph - N/A   Clear
11:34 AM 51.8 °F - 33.8 °F 50% 29.79 in 10.0 mi SSW 16.1 mph 23.0 mph N/A   Clear
11:53 AM 48.2 °F - 33.8 °F 58% 29.79 in 10.0 mi South 12.7 mph - N/A   Clear
12:13 PM 46.4 °F 40.1 °F 33.8 °F 62% 29.78 in 10.0 mi SSE 15.0 mph 23.0 mph N/A   Clear
12:34 PM 44.6 °F 37.4 °F 33.8 °F 66% 29.78 in 10.0 mi South 16.1 mph - N/A   Clear
12:53 PM 42.8 °F 35.4 °F 33.8 °F 70% 29.78 in 10.0 mi South 15.0 mph - N/A   Clear
1:14 PM 46.4 °F 40.7 °F 33.8 °F 62% 29.76 in 10.0 mi South 12.7 mph - N/A   Clear
1:33 PM 44.6 °F 36.9 °F 33.8 °F 66% 29.76 in 10.0 mi South 18.4 mph 24.2 mph N/A   Clear
1:54 PM 46.4 °F 39.8 °F 33.8 °F 62% 29.75 in 10.0 mi South 16.1 mph - N/A   Clear
2:13 PM 50.0 °F - 33.8 °F 54% 29.74 in 10.0 mi South 15.0 mph - N/A   Clear
2:34 PM 48.2 °F - 33.8 °F 58% 29.73 in 10.0 mi South 13.8 mph 19.6 mph N/A   Clear
2:53 PM 51.8 °F - 35.6 °F 54% 29.73 in 10.0 mi SSW 19.6 mph 26.5 mph N/A   Clear
3:14 PM 57.2 °F - 35.6 °F 44% 29.72 in 10.0 mi SSW 23.0 mph - N/A   Clear
3:33 PM 55.4 °F - 35.6 °F 47% 29.71 in 10.0 mi SSW 24.2 mph 28.8 mph N/A   Clear
3:53 PM 48.2 °F - 35.6 °F 62% 29.71 in 10.0 mi South 15.0 mph - N/A   Clear
4:13 PM 50.0 °F - 35.6 °F 58% 29.71 in 10.0 mi South 13.8 mph 23.0 mph N/A   Clear
4:33 PM 60.8 °F - 37.4 °F 42% 29.69 in 10.0 mi SSW 23.0 mph 31.1 mph N/A   Clear
4:54 PM 57.2 °F - 39.2 °F 51% 29.69 in 10.0 mi SW 19.6 mph - N/A   Clear
5:13 PM 60.8 °F - 41.0 °F 48% 29.69 in 10.0 mi SW 24.2 mph - N/A   Clear
5:33 PM 60.8 °F - 42.8 °F 52% 29.69 in 10.0 mi SSW 24.2 mph 36.8 mph N/A   Clear
5:53 PM 57.2 °F - 42.8 °F 59% 29.68 in 10.0 mi SSW 21.9 mph 28.8 mph N/A   Clear
6:13 PM 57.2 °F - 42.8 °F 59% 29.68 in 10.0 mi SSW 19.6 mph 24.2 mph N/A   Clear
6:34 PM 57.2 °F - 44.6 °F 63% 29.67 in 10.0 mi SSW 18.4 mph 26.5 mph N/A   Clear
6:53 PM 57.2 °F - 44.6 °F 63% 29.67 in 10.0 mi SSW 16.1 mph 24.2 mph N/A   Clear
7:14 PM 57.2 °F - 44.6 °F 63% 29.67 in 10.0 mi SSW 13.8 mph - N/A   Clear
7:33 PM 46.4 °F 41.5 °F 39.2 °F 76% 29.68 in 10.0 mi South 10.4 mph - N/A   Clear
7:53 PM 42.8 °F 36.2 °F 37.4 °F 81% 29.68 in 10.0 mi South 12.7 mph - N/A   Clear
8:13 PM 48.2 °F - 41.0 °F 76% 29.67 in 10.0 mi SSW 11.5 mph - N/A   Clear
8:34 PM 48.2 °F - 37.4 °F 66% 29.67 in 10.0 mi SSW 17.3 mph - N/A   Clear
8:53 PM 53.6 °F - 37.4 °F 54% 29.67 in 10.0 mi SSW 17.3 mph - N/A   Clear
9:14 PM 53.6 °F - 37.4 °F 54% 29.67 in 10.0 mi SSW 16.1 mph - N/A   Clear
9:33 PM 51.8 °F - 35.6 °F 54% 29.67 in 10.0 mi SSW 16.1 mph - N/A   Clear
9:53 PM 51.8 °F - 35.6 °F 54% 29.67 in 10.0 mi SSW 16.1 mph - N/A   Clear
10:13 PM 42.8 °F 37.5 °F 33.8 °F 70% 29.67 in 10.0 mi South 9.2 mph - N/A   Clear
10:33 PM 44.6 °F 39.2 °F 33.8 °F 66% 29.67 in 10.0 mi South 10.4 mph - N/A   Clear
10:54 PM 44.6 °F 39.2 °F 35.6 °F 71% 29.67 in 10.0 mi SSW 10.4 mph - N/A   Clear
11:13 PM 41.0 °F 35.2 °F 35.6 °F 81% 29.66 in 10.0 mi South 9.2 mph - N/A   Clear
11:33 PM 39.2 °F 32.5 °F 37.4 °F 93% 29.66 in 10.0 mi South 10.4 mph - N/A   Clear
11:54 PM 39.2 °F 32.5 °F 37.4 °F 93% 29.65 in 10.0 mi South 10.4 mph - N/A   Clear